Flight Track Log - Related Links

Times and Time Zones

All times are in EDT time to prevent confusion due to time zone crossing. See the CSJ405 flight status page for this flight to view local times or setup timezone preferences in your user account.

Time Position Orientation Groundspeed Altitude Reporting Facility
EDT Latitude Longitude Course Direction KTS MPH feet Rate Location/Type
Thu 04:56:01 AM 45.6667 -73.9833 180° South 70 81 2,100  Level Montreal Center
Thu 04:57:01 AM 45.6500 -73.9833 180° South 90 104 3,400 1,350 Climbing Montreal Center
Thu 04:58:01 AM 45.6167 -73.9833 180° South 100 115 4,800 1,200 Climbing Montreal Center
Thu 04:59:01 AM 45.5833 -73.9833 180° South 130 150 5,800 900 Climbing Montreal Center
Thu 05:00:00 AM 45.4301 -74.0176 173° South  Level Estimated
Thu 05:00:01 AM 45.5500 -73.9833 180° South 130 150 6,600  Level Montreal Center
Thu 05:01:00 AM 45.3885 -74.0141 180° South  Level Estimated
Thu 05:01:01 AM 45.5167 -73.9667 161° South 130 150 7,700  Level Montreal Center
Thu 05:02:01 AM 45.4833 -73.9667 180° South 140 161 8,000 150 Climbing Montreal Center
Thu 05:03:01 AM 45.4333 -73.9667 180° South 160 184 8,000  Level Montreal Center
Thu 05:04:01 AM 45.3833 -73.9667 180° South 160 184 8,000  Level Montreal Center
Thu 05:05:01 AM 45.3333 -73.9667 180° South 160 184 8,000  Level Montreal Center
Thu 05:06:01 AM 45.3000 -73.9667 180° South 160 184 8,000  Level Montreal Center
Thu 05:07:01 AM 45.2500 -73.9500 167° South 160 184 8,000  Level Montreal Center
Thu 05:08:01 AM 45.2167 -73.9500 180° South 160 184 8,000  Level Montreal Center
Thu 05:09:01 AM 45.1667 -73.9500 180° South 160 184 8,000  Level Montreal Center
Thu 05:10:01 AM 45.1167 -73.9500 180° South 160 184 8,000  Level Montreal Center
Thu 05:11:01 AM 45.0833 -73.9500 180° South 160 184 8,000  Level Montreal Center
Thu 05:12:01 AM 45.0333 -73.9333 167° South 160 184 8,000  Level Montreal Center
Thu 05:13:01 AM 44.9833 -73.9333 180° South 160 184 8,000  Level Montreal Center
Thu 05:14:01 AM 44.9333 -73.9333 180° South 170 196 8,000  Level Montreal Center
Thu 05:15:01 AM 44.9000 -73.9333 180° South 170 196 8,000  Level Montreal Center
Thu 05:16:01 AM 44.8500 -73.9333 180° South 170 196 8,000  Level Montreal Center
Thu 05:17:01 AM 44.8000 -73.9167 167° South 170 196 8,000  Level Montreal Center
Thu 05:17:27 AM 44.8058 -73.9322 298° West 167 192 8,000  Level Boston Center
Thu 05:18:27 AM 44.7456 -73.9278 177° South 174 200 8,000  Level Boston Center
Thu 05:19:39 AM 44.6997 -73.9208 174° South 174 200 8,000  Level Boston Center
Thu 05:20:39 AM 44.6456 -73.9164 177° South 174 200 8,000  Level Boston Center
Thu 05:21:39 AM 44.6019 -73.9183 182° South 174 200 8,000  Level Boston Center
Thu 05:22:39 AM 44.5581 -73.9142 176° South 169 194 8,000  Level Boston Center
Thu 05:23:39 AM 44.5122 -73.9131 179° South 169 194 8,000  Level Boston Center
Thu 05:24:39 AM 44.4644 -73.9089 176° South 164 189 8,000  Level Boston Center
Thu 05:25:39 AM 44.4186 -73.9078 179° South 164 189 8,000  Level Boston Center
Thu 05:26:39 AM 44.3750 -73.9039 176° South 164 189 8,000  Level Boston Center
Thu 05:27:39 AM 44.3292 -73.9028 179° South 164 189 8,000  Level Boston Center
Thu 05:28:39 AM 44.2833 -73.8986 176° South 164 189 8,000  Level Boston Center
Thu 05:29:39 AM 44.2397 -73.8947 176° South 159 183 8,000  Level Boston Center
Thu 05:30:39 AM 44.1981 -73.8936 179° South 159 183 8,000  Level Boston Center
Thu 05:31:39 AM 44.1542 -73.8897 176° South 159 183 8,000  Level Boston Center
Thu 05:32:39 AM 44.1083 -73.8886 179° South 159 183 8,000  Level Boston Center
Thu 05:33:39 AM 44.0647 -73.8875 179° South 159 183 8,000  Level Boston Center
Thu 05:34:39 AM 44.0211 -73.8836 176° South 164 189 8,000  Level Boston Center
Thu 05:35:39 AM 43.9772 -73.8797 176° South 159 183 8,000  Level Boston Center
Thu 05:36:39 AM 43.9336 -73.8758 176° South 159 183 8,000  Level Boston Center
Thu 05:37:39 AM 43.8939 -73.8778 182° South 159 183 8,000  Level Boston Center
Thu 05:38:39 AM 43.8481 -73.8708 174° South 159 183 8,000  Level Boston Center
Thu 05:39:39 AM 43.8044 -73.8697 179° South 159 183 8,000  Level Boston Center
Thu 05:40:39 AM 43.7544 -73.8658 177° South 164 189 8,000  Level Boston Center
Thu 05:41:39 AM 43.7150 -73.8647 179° South 164 189 8,000  Level Boston Center
Thu 05:41:58 AM 43.6983 -73.8644 179° South 157 181 8,000  Level Boston Center
Thu 05:42:39 AM 43.6692 -73.8608 175° South 159 183 8,000  Level Boston Center
Thu 05:43:05 AM 43.6544 -73.8633 187° South 159 183 8,000  Level Boston Center
Thu 05:43:39 AM 43.6211 -73.8569 172° South 159 183 8,000  Level Boston Center
Thu 05:44:05 AM 43.6003 -73.8592 184° South 165 190 8,000  Level Boston Center
Thu 05:44:39 AM 43.5756 -73.8500 165° South 159 183 8,000  Level Boston Center
Thu 05:45:06 AM 43.5525 -73.8553 189° South 167 192 8,000  Level Boston Center
Thu 05:45:39 AM 43.5275 -73.8489 170° South 165 190 8,000  Level Boston Center
Thu 05:46:00 AM 43.5108 -73.8514 186° South 167 192 8,000  Level Boston Center
Thu 05:46:39 AM 43.4817 -73.8450 171° South 165 190 8,000  Level Boston Center
Thu 05:47:01 AM 43.4669 -73.8503 195° South 165 190 8,000  Level Boston Center
Thu 05:47:39 AM 43.4442 -73.8414 164° South 165 190 8,000  Level Boston Center
Thu 05:48:02 AM 43.4192 -73.8464 188° South 166 191 8,000  Level Boston Center
Thu 05:48:39 AM 43.3881 -73.8458 179° South 165 190 8,000  Level Boston Center
Thu 05:49:02 AM 43.3756 -73.8456 179° South 163 188 8,000  Level Boston Center
Thu 05:49:39 AM 43.3506 -73.8419 174° South 165 190 8,000 -197 Level Boston Center
Thu 05:50:03 AM 43.3297 -73.8414 179° South 161 185 7,800 -500 Descending Boston Center
Thu 05:50:39 AM 43.2983 -73.8381 176° South 165 190 7,500 -492 Descending Boston Center
Thu 05:51:04 AM 43.2817 -73.8375 179° South 170 196 7,300 -400 Descending Boston Center
Thu 05:51:39 AM 43.2567 -73.8369 179° South 165 190 7,100 -500 Descending Boston Center
Thu 05:52:04 AM 43.2339 -73.8336 174° South 168 193 6,800 -700 Descending Boston Center
Thu 05:52:39 AM 43.2047 -73.8244 167° South 171 197 6,400 -689 Descending Boston Center
Thu 05:53:05 AM 43.1842 -73.8153 162° South 172 198 6,100 -600 Descending Boston Center
Thu 05:53:39 AM 43.1592 -73.8064 165° South 177 204 5,800 -545 Descending Boston Center
Thu 05:54:11 AM 43.1364 -73.8000 168° South 169 194 5,500 -500 Descending Boston Center
Thu 05:54:39 AM 43.1197 -73.7939 165° South 177 204 5,300 -655 Descending Boston Center
Thu 05:55:06 AM 43.0947 -73.7878 170° South 168 193 4,900 -600 Descending Boston Center
Thu 05:55:39 AM 43.0678 -73.7786 166° South 172 198 4,700 -393 Descending Boston Center
Thu 05:56:07 AM 43.0469 -73.7697 163° South 169 194 4,500 -500 Descending Boston Center
Thu 05:56:39 AM 43.0283 -73.7636 167° South 172 198 4,200 -700 Descending Boston Center
Thu 05:57:07 AM 43.0033 -73.7575 170° South 168 193 3,800 -607 Descending Boston Center
Thu 05:58:08 AM 42.9578 -73.7450 169° South 167 192 3,300 -397 Descending Boston Center
Thu 05:59:08 AM 42.9142 -73.7272 163° South 162 186 3,000 -248 Descending Boston Center
Thu 06:00:09 AM 42.8703 -73.7319 185° South 158 182 2,800 -541 Descending Boston Center
Thu 06:01:10 AM 42.8283 -73.7594 206° Southwest 170 196 1,900 -793 Descending Boston Center
Thu 06:02:10 AM 42.7844 -73.7781 197° South 168 193 1,200 -700 Descending Boston Center
Thu 06:04:00 AM 42.7491 -73.8020 180° South  Level Estimated
Thu 06:11:00 AM 42.7491 -73.8020 180° South  Level Estimated
Thu 06:12:00 AM 42.7491 -73.8020 180° South  Level Estimated
Thu 06:13:00 AM 42.7491 -73.8020 180° South  Level Estimated

Login

Don't have an account? Register now (free) for customized features, flight alerts, and more!